tititudorancea.com
Station Historical Data
Daily Summary for December 5, 2018 Units:  Metric    English   Both
« Previous Day
Next Day »
Daily Weekly Monthly Yearly Custom
  High: Low: Average:
Temperature: -17.8 °C 9.7 °C 20.2 °C
Dew Point: -17.8 °C -6.5 °C 6.7 °C
Humidity: Humidity % 8 % 54 %
Wind Speed: 0 km/h 0 km/h 9.5 km/h
Wind Gust: 0 km/h - -
Wind:- - SSE
Pressure: 0 hPa 1013.4 hPa -
Precipitation: 0 mm    
Historical Graphs
 
 
Ararat weather Find more about Weather in Ararat, AU


 



 


Tabular Data for December 5, 2018
Time Temperature Dew Point Pressure Wind Wind Speed Wind Gust Humidity Rainfall Rate (Hourly)
-17.8 °C -17.8 °C 0 hPa Calm     Humidity % 0 mm
00:04 12.1 °C 9.8 °C 1018.2 hPa SSE 11.1 km/h 5.5 km/h 86 % 0 mm
00:09 11.9 °C 9.7 °C 1018.2 hPa SSE 12.9 km/h 4.8 km/h 86 % 0 mm
00:14 11.9 °C 9.7 °C 1018.2 hPa SSE 6.4 km/h 3.7 km/h 86 % 0 mm
00:19 11.9 °C 9.8 °C 1018.2 hPa SSE 11.1 km/h 6.1 km/h 87 % 0 mm
00:24 11.9 °C 9.8 °C 1018.2 hPa SSE 11.1 km/h 6.4 km/h 87 % 0 mm
00:29 11.8 °C 9.7 °C 1018.2 hPa SSE 12.9 km/h 8.2 km/h 87 % 0 mm
00:34 11.8 °C 9.7 °C 1017.8 hPa SSE 11.1 km/h 7.9 km/h 87 % 0 mm
00:39 11.8 °C 9.7 °C 1017.8 hPa SSE 11.1 km/h 8 km/h 87 % 0 mm
00:44 11.8 °C 9.7 °C 1017.8 hPa SSE 12.9 km/h 8 km/h 87 % 0 mm
00:49 11.7 °C 9.6 °C 1017.8 hPa SSE 5.6 km/h 4.5 km/h 87 % 0 mm
00:54 11.6 °C 9.7 °C 1017.8 hPa SSE 9.3 km/h 8.2 km/h 88 % 0 mm
00:59 11.6 °C 9.6 °C 1017.8 hPa North 9.7 km/h 6 km/h 88 % 0 mm
01:04 11.5 °C 9.6 °C 1017.8 hPa SSE 8 km/h 6.1 km/h 88 % 0 mm
01:09 11.4 °C 9.4 °C 1017.8 hPa SSE 9.7 km/h 6.8 km/h 88 % 0 mm
01:14 11.4 °C 9.7 °C 1017.8 hPa South 9.3 km/h 6.6 km/h 89 % 0 mm
01:19 11.3 °C 9.6 °C 1017.8 hPa North 9.3 km/h 8.4 km/h 89 % 0 mm
01:24 11.4 °C 9.7 °C 1017.5 hPa North 9.3 km/h 6.9 km/h 89 % 0 mm
01:29 11.3 °C 9.6 °C 1017.8 hPa SSE 11.1 km/h 4.8 km/h 89 % 0 mm
01:34 11.3 °C 9.6 °C 1017.8 hPa North 6.4 km/h 4.5 km/h 89 % 0 mm
01:39 11.3 °C 9.8 °C 1017.8 hPa SSE 9.3 km/h 5.1 km/h 90 % 0 mm
01:44 11.4 °C 9.8 °C 1017.8 hPa SSE 9.3 km/h 5 km/h 90 % 0 mm
01:49 11.4 °C 9.9 °C 1017.8 hPa SSE 6.4 km/h 4 km/h 90 % 0 mm
01:54 11.4 °C 9.8 °C 1017.8 hPa SSE 13 km/h 5.6 km/h 90 % 0 mm
01:59 11.3 °C 9.8 °C 1017.8 hPa SSE 9.3 km/h 5.1 km/h 90 % 0 mm
02:04 11.3 °C 9.7 °C 1017.8 hPa SSE 11.1 km/h 8.5 km/h 90 % 0 mm
02:09 11.2 °C 9.7 °C 1017.8 hPa South 11.1 km/h 6.4 km/h 90 % 0 mm
02:14 11.2 °C 9.7 °C 1017.8 hPa SSE 11.3 km/h 7.6 km/h 90 % 0 mm
02:19 11.2 °C 9.6 °C 1017.5 hPa North 8 km/h 7.4 km/h 90 % 0 mm
02:24 11.1 °C 9.6 °C 1017.5 hPa SSE 9.3 km/h 6.1 km/h 90 % 0 mm
02:29 11.1 °C 9.5 °C 1017.5 hPa SSE 11.1 km/h 8.4 km/h 90 % 0 mm
02:34 11 °C 9.6 °C 1017.5 hPa SSE 7.4 km/h 5.3 km/h 91 % 0 mm
02:39 10.9 °C 9.5 °C 1017.5 hPa North 9.3 km/h 6.6 km/h 91 % 0 mm
02:44 10.8 °C 9.4 °C 1017.5 hPa SSE 9.3 km/h 6.4 km/h 91 % 0 mm
02:49 10.8 °C 9.4 °C 1017.5 hPa South 11.1 km/h 4.7 km/h 91 % 0 mm
02:54 10.7 °C 9.3 °C 1017.5 hPa SSE 11.3 km/h 7.4 km/h 91 % 0 mm
02:59 10.7 °C 9.3 °C 1017.5 hPa SSE 9.3 km/h 6.1 km/h 91 % 0 mm
03:04 10.7 °C 9.3 °C 1017.5 hPa SSE 13 km/h 9.5 km/h 91 % 0 mm
03:09 10.7 °C 9.3 °C 1017.5 hPa SSE 8 km/h 3.2 km/h 91 % 0 mm
03:14 10.6 °C 9.2 °C 1017.5 hPa SSE 5.6 km/h 2.7 km/h 91 % 0 mm
03:19 10.6 °C 9.2 °C 1017.5 hPa SSE 9.3 km/h 3.1 km/h 91 % 0 mm
03:24 10.6 °C 9.2 °C 1017.5 hPa SSE 7.4 km/h 6.9 km/h 91 % 0 mm
03:29 10.4 °C 9.1 °C 1017.5 hPa SSE 5.6 km/h 4.7 km/h 91 % 0 mm
03:34 10.4 °C 9.2 °C 1017.5 hPa SSE 7.4 km/h 2.7 km/h 92 % 0 mm
03:39 10.4 °C 9.2 °C 1017.5 hPa SSE 8 km/h 5.5 km/h 92 % 0 mm
03:44 10.3 °C 9.1 °C 1017.5 hPa SSE 3.7 km/h 3.2 km/h 92 % 0 mm
03:49 10.3 °C 9.1 °C 1017.5 hPa SSE 3.7 km/h 1.6 km/h 92 % 0 mm
03:54 10.2 °C 9 °C 1017.5 hPa SSE 7.4 km/h 5 km/h 92 % 0 mm
03:59 10.2 °C 8.9 °C 1017.5 hPa SSE 7.4 km/h 4.8 km/h 92 % 0 mm
04:04 10.2 °C 8.9 °C 1017.5 hPa SSE 9.3 km/h 6 km/h 92 % 0 mm
04:09 10.2 °C 8.9 °C 1017.5 hPa SSE 13 km/h 7.2 km/h 92 % 0 mm
04:14 10.2 °C 8.9 °C 1017.5 hPa SSE 13 km/h 10.1 km/h 92 % 0 mm
04:19 10.2 °C 9.1 °C 1017.5 hPa SSE 13 km/h 7.1 km/h 93 % 0 mm
04:24 10.2 °C 9.2 °C 1017.5 hPa SSE 11.1 km/h 4.5 km/h 93 % 0 mm
04:29 10.2 °C 9.1 °C 1017.5 hPa SSE 11.1 km/h 8.2 km/h 93 % 0 mm
04:34 10.2 °C 9.1 °C 1017.5 hPa South 9.3 km/h 5.5 km/h 93 % 0 mm
04:39 10.1 °C 8.9 °C 1017.5 hPa South 11.1 km/h 4.2 km/h 92 % 0 mm
04:44 10 °C 8.8 °C 1017.5 hPa South 9.3 km/h 3.1 km/h 92 % 0 mm
04:49 9.9 °C 8.9 °C 1017.5 hPa South 9.3 km/h 5.3 km/h 93 % 0 mm
04:54 9.9 °C 8.7 °C 1017.5 hPa SSE 3.7 km/h 4.8 km/h 92 % 0 mm
04:59 9.8 °C 8.8 °C 1017.5 hPa SSE 11.1 km/h 8.5 km/h 93 % 0 mm
05:04 9.8 °C 8.6 °C 1017.5 hPa SSE 11.1 km/h 9.8 km/h 92 % 0 mm
05:09 9.7 °C 8.7 °C 1017.8 hPa SSE 11.1 km/h 9.2 km/h 93 % 0 mm
05:14 9.8 °C 8.7 °C 1017.8 hPa South 11.1 km/h 6.3 km/h 93 % 0 mm
05:19 9.8 °C 8.7 °C 1017.8 hPa North 13 km/h 8.2 km/h 93 % 0 mm
05:24 9.8 °C 8.7 °C 1017.5 hPa SSE 11.3 km/h 7.6 km/h 93 % 0 mm
05:29 9.8 °C 8.7 °C 1017.5 hPa South 8 km/h 7.7 km/h 93 % 0 mm
05:34 9.8 °C 8.7 °C 1017.8 hPa South 11.1 km/h 8.4 km/h 93 % 0 mm
05:39 9.8 °C 8.7 °C 1017.8 hPa SSE 7.4 km/h 7.6 km/h 93 % 0 mm
05:44 9.8 °C 8.7 °C 1017.8 hPa South 13 km/h 9.2 km/h 93 % 0 mm
05:49 9.8 °C 8.8 °C 1017.8 hPa South 13 km/h 9.7 km/h 93 % 0 mm
05:54 9.8 °C 8.8 °C 1017.8 hPa South 8 km/h 6 km/h 93 % 0 mm
05:59 9.8 °C 8.8 °C 1017.8 hPa South 11.1 km/h 11.4 km/h 93 % 0 mm
06:04 9.8 °C 8.8 °C 1017.8 hPa South 11.3 km/h 9.5 km/h 93 % 0 mm
06:09 9.8 °C 8.7 °C 1017.8 hPa South 11.1 km/h 7.2 km/h 93 % 0 mm
06:14 9.8 °C 8.7 °C 1017.8 hPa South 13 km/h 8.2 km/h 93 % 0 mm
06:19 9.8 °C 8.8 °C 1017.8 hPa South 9.3 km/h 7.4 km/h 93 % 0 mm
06:24 9.8 °C 8.8 °C 1017.8 hPa South 9.3 km/h 8.5 km/h 93 % 0 mm
06:29 9.9 °C 8.9 °C 1017.8 hPa South 13 km/h 9.5 km/h 93 % 0 mm
06:34 10.1 °C 9 °C 1018.2 hPa South 13 km/h 11.7 km/h 93 % 0 mm
06:39 10.2 °C 9.1 °C 1018.2 hPa South 14.8 km/h 10.9 km/h 93 % 0 mm
06:44 10.3 °C 9.3 °C 1018.2 hPa South 11.1 km/h 8.4 km/h 93 % 0 mm
06:49 10.5 °C 9.4 °C 1018.2 hPa South 9.7 km/h 7.6 km/h 93 % 0 mm
06:54 10.6 °C 9.5 °C 1018.2 hPa South 9.3 km/h 5.3 km/h 93 % 0 mm
06:59 10.7 °C 9.5 °C 1018.2 hPa South 11.1 km/h 5.6 km/h 92 % 0 mm
07:04 10.8 °C 9.6 °C 1018.2 hPa South 8 km/h 7.9 km/h 92 % 0 mm
07:09 10.9 °C 9.7 °C 1018.2 hPa South 11.3 km/h 7.9 km/h 92 % 0 mm
07:14 11 °C 9.6 °C 1018.2 hPa South 9.3 km/h 5.5 km/h 91 % 0 mm
07:19 11.2 °C 9.8 °C 1018.2 hPa South 16.7 km/h 6.3 km/h 91 % 0 mm
07:24 11.4 °C 9.9 °C 1018.2 hPa South 6.4 km/h 8.5 km/h 91 % 0 mm
07:29 11.6 °C 9.9 °C 1018.2 hPa South 13 km/h 8.7 km/h 90 % 0 mm
07:34 11.7 °C 10.1 °C 1018.2 hPa South 11.3 km/h 11.6 km/h 90 % 0 mm
07:39 11.8 °C 10 °C 1018.2 hPa South 14.8 km/h 11.4 km/h 89 % 0 mm
07:44 11.9 °C 10.3 °C 1018.2 hPa South 11.1 km/h 9.3 km/h 90 % 0 mm
07:49 12.1 °C 10.3 °C 1018.2 hPa South 14.8 km/h 10 km/h 89 % 0 mm
07:54 12.2 °C 10.4 °C 1018.2 hPa South 14.5 km/h 10.6 km/h 89 % 0 mm
07:59 12.6 °C 10.8 °C 1018.5 hPa South 14.8 km/h 6.9 km/h 89 % 0 mm
08:04 13 °C 11.1 °C 1018.5 hPa SSE 11.1 km/h 6 km/h 88 % 0 mm
08:09 13.3 °C 11.2 °C 1018.5 hPa SE 18.5 km/h 12.1 km/h 87 % 0 mm
08:14 13.5 °C 11 °C 1018.5 hPa SSE 14.8 km/h 10.1 km/h 85 % 0 mm
08:19 13.7 °C 11.2 °C 1018.5 hPa SSE 12.9 km/h 9 km/h 85 % 0 mm
08:24 13.9 °C 11.2 °C 1018.5 hPa SSE 11.1 km/h 10 km/h 84 % 0 mm
08:29 14.1 °C 11.4 °C 1018.5 hPa SSE 9.7 km/h 6.8 km/h 84 % 0 mm
08:34 14 °C 11.2 °C 1018.5 hPa SSE 16.7 km/h 9 km/h 83 % 0 mm
08:39 14.1 °C 11.3 °C 1018.5 hPa SSE 9.7 km/h 10.5 km/h 83 % 0 mm
08:44 14.2 °C 11.2 °C 1018.5 hPa SSE 11.1 km/h 11.1 km/h 82 % 0 mm
08:49 14.4 °C 11.4 °C 1018.5 hPa SSE 7.4 km/h 4.5 km/h 82 % 0 mm
08:54 14.5 °C 11.3 °C 1018.5 hPa SSE 11.1 km/h 8.4 km/h 81 % 0 mm
08:59 14.8 °C 11.4 °C 1018.2 hPa SSE 5.6 km/h 5.3 km/h 80 % 0 mm
09:04 15.2 °C 11.6 °C 1018.2 hPa SSE 9.7 km/h 2.1 km/h 79 % 0 mm
09:09 15.6 °C 11.4 °C 1018.2 hPa SSE 9.3 km/h 6.3 km/h 76 % 0 mm
09:14 15.7 °C 11.3 °C 1018.5 hPa SSE 9.3 km/h 4.7 km/h 75 % 0 mm
09:19 15.7 °C 11.1 °C 1018.5 hPa SSE 9.7 km/h 9.5 km/h 74 % 0 mm
09:24 15.8 °C 11.2 °C 1018.5 hPa SSE 7.4 km/h 4.3 km/h 74 % 0 mm
09:29 15.9 °C 10.9 °C 1018.2 hPa SSE 13 km/h 9.2 km/h 72 % 0 mm
09:34 16.2 °C 11.2 °C 1018.2 hPa SSE 11.1 km/h 10.5 km/h 72 % 0 mm
09:39 16.4 °C 10.9 °C 1018.2 hPa SSE 13 km/h 6.8 km/h 70 % 0 mm
09:44 16.7 °C 11.2 °C 1018.2 hPa SSE 11.1 km/h 8.7 km/h 70 % 0 mm
09:49 17 °C 11.1 °C 1018.2 hPa SSE 11.1 km/h 8.4 km/h 68 % 0 mm
09:54 17.3 °C 10.9 °C 1018.2 hPa SSE 9.7 km/h 7.6 km/h 66 % 0 mm
09:59 17.6 °C 10.7 °C 1018.2 hPa SSE 13 km/h 9.5 km/h 64 % 0 mm
10:04 18.1 °C 10.7 °C 1018.2 hPa South 14.8 km/h 11.9 km/h 62 % 0 mm
10:09 18.7 °C 10.8 °C 1017.8 hPa South 3.7 km/h 0.6 km/h 60 % 0 mm
10:14 19.5 °C 10.5 °C 1018.2 hPa South 11.1 km/h 7.6 km/h 56 % 0 mm
10:19 20 °C 10.1 °C 1018.2 hPa South 11.1 km/h 10.9 km/h 53 % 0 mm
10:24 20 °C 9.3 °C 1018.2 hPa South 11.3 km/h 7.7 km/h 50 % 0 mm
10:29 20.1 °C 9.7 °C 1018.2 hPa South 9.7 km/h 6.6 km/h 51 % 0 mm
10:34 20.9 °C 8.9 °C 1018.2 hPa South 8 km/h 7.1 km/h 46 % 0 mm
10:39 21.8 °C 8.3 °C 1018.2 hPa South 11.1 km/h 7.1 km/h 42 % 0 mm
10:44 21.9 °C 7.7 °C 1018.2 hPa South 11.1 km/h 8.4 km/h 40 % 0 mm
10:49 22 °C 7.4 °C 1018.2 hPa South 5.6 km/h 3.2 km/h 39 % 0 mm
10:54 22.7 °C 8 °C 1018.2 hPa South 12.9 km/h 5.6 km/h 39 % 0 mm
10:59 23.3 °C 7.4 °C 1018.2 hPa South 1.9 km/h 0.6 km/h 36 % 0 mm
11:04 23.6 °C 6.4 °C 1018.2 hPa South 9.3 km/h 6.4 km/h 33 % 0 mm
11:09 23.8 °C 5.6 °C 1018.2 hPa South 3.7 km/h 1.4 km/h 31 % 0 mm
11:14 23.8 °C 6.6 °C 1018.2 hPa South 12.9 km/h 9 km/h 33 % 0 mm
11:19 23.7 °C 6 °C 1018.2 hPa South 11.1 km/h 5.8 km/h 32 % 0 mm
11:24 23.8 °C 4.7 °C 1017.8 hPa South 11.1 km/h 6.6 km/h 29 % 0 mm
11:29 23.9 °C 4.3 °C 1017.8 hPa South 6.4 km/h 4.2 km/h 28 % 0 mm
11:34 24.4 °C 4.2 °C 1017.8 hPa South 8 km/h 6 km/h 27 % 0 mm
11:39 25 °C 4.7 °C 1017.8 hPa South 8 km/h 6.4 km/h 27 % 0 mm
11:44 25.1 °C 3.1 °C 1017.8 hPa South 7.4 km/h 0.8 km/h 24 % 0 mm
11:49 25.3 °C 3.9 °C 1017.8 hPa South 8 km/h 4.8 km/h 25 % 0 mm
11:54 25.8 °C 3.7 °C 1017.8 hPa South 12.9 km/h 11.6 km/h 24 % 0 mm
11:59 25.5 °C 2.8 °C 1017.5 hPa South 9.3 km/h 4.3 km/h 23 % 0 mm
12:04 25.9 °C 2.6 °C 1017.5 hPa South 8 km/h 3.5 km/h 22 % 0 mm
12:09 25.8 °C 3.7 °C 1017.5 hPa South 5.6 km/h 2.4 km/h 24 % 0 mm
12:14 26.2 °C 4.1 °C 1017.2 hPa South 7.4 km/h 3.4 km/h 24 % 0 mm
12:19 26.9 °C 3.4 °C 1017.2 hPa South 8 km/h 5.8 km/h 22 % 0 mm
12:24 27.6 °C 4.6 °C 1017.2 hPa South 9.3 km/h 8.2 km/h 23 % 0 mm
12:29 27.7 °C 4.7 °C 1017.2 hPa SSE 8 km/h 6.8 km/h 23 % 0 mm
12:34 27.7 °C 3.4 °C 1017.2 hPa SSE 9.3 km/h 5.1 km/h 21 % 0 mm
12:39 27.4 °C 3.1 °C 1017.2 hPa SSE 7.4 km/h 4.8 km/h 21 % 0 mm
12:44 27.1 °C 2.8 °C 1017.2 hPa SSE 9.3 km/h 6.4 km/h 21 % 0 mm
12:49 27.2 °C 3 °C 1016.8 hPa SSE 6.4 km/h 4.2 km/h 21 % 0 mm
12:54 27.6 °C 3.3 °C 1016.8 hPa SSE 7.4 km/h 5.8 km/h 21 % 0 mm
12:59 27.8 °C 2.8 °C 1016.8 hPa SSE 9.3 km/h 8 km/h 20 % 0 mm
13:04 27.8 °C 2.8 °C 1016.8 hPa SSE 9.3 km/h 6.3 km/h 20 % 0 mm
13:09 28 °C 2.9 °C 1016.8 hPa SSE 9.3 km/h 3.9 km/h 20 % 0 mm
13:14 28.2 °C 2.4 °C 1016.8 hPa SSE 11.1 km/h 7.6 km/h 19 % 0 mm
13:19 28.5 °C 2.6 °C 1016.5 hPa SSE 9.3 km/h 8.9 km/h 19 % 0 mm
13:24 28.6 °C 2.7 °C 1016.5 hPa SE 9.3 km/h 8.9 km/h 19 % 0 mm
13:29 29.1 °C 3.1 °C 1016.5 hPa SE 11.3 km/h 10.5 km/h 19 % 0 mm
13:34 28.8 °C 2.8 °C 1016.5 hPa SE 9.7 km/h 7.4 km/h 19 % 0 mm
13:39 28.8 °C 2.1 °C 1016.5 hPa SE 8 km/h 5.5 km/h 18 % 0 mm
13:44 29.3 °C 1.7 °C 1016.5 hPa SE 13 km/h 9.8 km/h 17 % 0 mm
13:49 29 °C 2.3 °C 1016.5 hPa SE 11.1 km/h 8.7 km/h 18 % 0 mm
13:54 28.8 °C 1.3 °C 1016.5 hPa SE 9.7 km/h 6.8 km/h 17 % 0 mm
13:59 29.2 °C 1.7 °C 1016.5 hPa SE 7.4 km/h 5.1 km/h 17 % 0 mm
14:04 29.3 °C -0.1 °C 1016.1 hPa SE 5.6 km/h 1.8 km/h 15 % 0 mm
14:09 29.2 °C 0.8 °C 1016.1 hPa SE 9.3 km/h 6 km/h 16 % 0 mm
14:14 29.1 °C 0.7 °C 1016.1 hPa SE 9.7 km/h 5.8 km/h 16 % 0 mm
14:19 29.4 °C 1.8 °C 1016.1 hPa SE 13 km/h 6.4 km/h 17 % 0 mm
14:24 29.9 °C 0.5 °C 1016.1 hPa SE 7.4 km/h 2.1 km/h 15 % 0 mm
14:29 29.9 °C 1.4 °C 1016.1 hPa SE 8 km/h 7.2 km/h 16 % 0 mm
14:34 29.9 °C 0.5 °C 1015.8 hPa SE 7.4 km/h 2.9 km/h 15 % 0 mm
14:39 30.1 °C 1.5 °C 1015.8 hPa SE 11.1 km/h 5.5 km/h 16 % 0 mm
14:44 30.4 °C 0.8 °C 1015.8 hPa SE 13 km/h 10.8 km/h 15 % 0 mm
14:49 30.4 °C 0.8 °C 1015.5 hPa SE 16.7 km/h 10.8 km/h 15 % 0 mm
14:54 29.9 °C -0.4 °C 1015.5 hPa SE 7.4 km/h 5.3 km/h 14 % 0 mm
14:59 29.7 °C 0.3 °C 1015.5 hPa SE 3.2 km/h 0.2 km/h 15 % 0 mm
15:04 29.9 °C 0.5 °C 1015.5 hPa SE 3.7 km/h 1.9 km/h 15 % 0 mm
15:09 30.3 °C 0.8 °C 1015.5 hPa SE 9.7 km/h 6 km/h 15 % 0 mm
15:14 30.5 °C 0 °C 1015.5 hPa SE 9.3 km/h 2.7 km/h 14 % 0 mm
15:19 31.1 °C 0.4 °C 1015.5 hPa SE 9.7 km/h 6.1 km/h 14 % 0 mm
15:24 31 °C 0.4 °C 1015.1 hPa SE 9.7 km/h 5.1 km/h 14 % 0 mm
15:29 30.9 °C 0.3 °C 1015.1 hPa SE 11.1 km/h 6.1 km/h 14 % 0 mm
15:34 30.7 °C -0.9 °C 1015.1 hPa ESE 9.7 km/h 8.7 km/h 13 % 0 mm
15:39 30.5 °C -1.1 °C 1015.1 hPa ESE 6.4 km/h 0.5 km/h 13 % 0 mm
15:44 30.8 °C -0.8 °C 1015.1 hPa ESE 5.6 km/h 3.2 km/h 13 % 0 mm
15:49 31.3 °C -1.6 °C 1014.8 hPa ESE 9.3 km/h 5.1 km/h 12 % 0 mm
15:54 31.3 °C -1.6 °C 1014.8 hPa Calm   1 km/h 12 % 0 mm
15:59 31.7 °C -2.4 °C 1014.8 hPa ESE 13 km/h 10.5 km/h 11 % 0 mm
16:04 31.6 °C -2.5 °C 1014.8 hPa ESE 8 km/h 6.9 km/h 11 % 0 mm
16:09 31.6 °C -2.5 °C 1014.8 hPa ESE 9.7 km/h 5.6 km/h 11 % 0 mm
16:14 31.5 °C -2.6 °C 1014.4 hPa ESE 9.3 km/h 7.6 km/h 11 % 0 mm
16:19 31.8 °C -6.5 °C 1014.4 hPa ESE 14.8 km/h 7.6 km/h 8 % 0 mm
16:24 31.7 °C -5.1 °C 1014.4 hPa ESE 9.3 km/h 6.3 km/h 9 % 0 mm
16:29 31.3 °C -2.7 °C 1014.4 hPa ESE 8 km/h 3.1 km/h 11 % 0 mm
16:34 31.4 °C -2.6 °C 1014.4 hPa ESE 11.3 km/h 8.9 km/h 11 % 0 mm
16:39 31.2 °C -4.1 °C 1014.4 hPa ESE 9.3 km/h 0.5 km/h 10 % 0 mm
16:44 31.2 °C -1.6 °C 1014.4 hPa ESE 9.7 km/h 8.2 km/h 12 % 0 mm
16:49 31 °C -2.9 °C 1014.4 hPa ESE 9.3 km/h 4 km/h 11 % 0 mm
16:54 31.4 °C -2.6 °C 1014.1 hPa ESE 5.6 km/h 3.5 km/h 11 % 0 mm
16:59 31.6 °C -2.4 °C 1014.1 hPa ESE 3.7 km/h 0.8 km/h 11 % 0 mm
17:04 31.6 °C -2.5 °C 1014.1 hPa ESE 7.4 km/h 5.5 km/h 11 % 0 mm
17:09 31.8 °C -2.3 °C 1014.1 hPa ESE 3.2 km/h 1.4 km/h 11 % 0 mm
17:14 32.2 °C -0.8 °C 1013.8 hPa ESE 3.7 km/h 0.6 km/h 12 % 0 mm
17:19 32.4 °C -3.2 °C 1013.8 hPa ESE 8 km/h 8.2 km/h 10 % 0 mm
17:24 31.9 °C -2.2 °C 1013.8 hPa ESE 9.3 km/h 5.1 km/h 11 % 0 mm
17:29 31.8 °C -1.2 °C 1013.8 hPa ESE 3.7 km/h 1.6 km/h 12 % 0 mm
17:34 32.1 °C -0.9 °C 1013.8 hPa ESE 6.4 km/h 6 km/h 12 % 0 mm
17:39 32.2 °C -0.8 °C 1013.4 hPa ESE 3.7 km/h 1.8 km/h 12 % 0 mm
17:44 32.2 °C -2.1 °C 1013.4 hPa ESE 5.6 km/h 1.8 km/h 11 % 0 mm
17:49 31.9 °C -1 °C 1013.4 hPa ESE 9.3 km/h 4.3 km/h 12 % 0 mm
17:54 31.9 °C -2.2 °C 1013.4 hPa ESE 11.3 km/h 10.3 km/h 11 % 0 mm
17:59 31.7 °C -2.4 °C 1013.4 hPa SE 11.1 km/h 5.8 km/h 11 % 0 mm
18:04 31.8 °C -1.2 °C 1013.4 hPa SE 8 km/h 8.7 km/h 12 % 0 mm
18:09 31.6 °C -1.3 °C 1013.4 hPa SE 8 km/h 6.6 km/h 12 % 0 mm
18:14 31.6 °C -1.3 °C 1013.4 hPa SE 9.7 km/h 7.4 km/h 12 % 0 mm
18:19 31.4 °C -1.4 °C 1013.4 hPa SE 7.4 km/h 3.7 km/h 12 % 0 mm
18:24 31.6 °C -1.3 °C 1013.4 hPa SE 11.1 km/h 8.9 km/h 12 % 0 mm
18:29 31.4 °C -1.4 °C 1013.4 hPa SE 8 km/h 6.3 km/h 12 % 0 mm
18:34 31.4 °C -1.4 °C 1013.4 hPa SE 7.4 km/h 8.2 km/h 12 % 0 mm
18:39 31.4 °C -1.4 °C 1013.4 hPa SE 9.7 km/h 8.9 km/h 12 % 0 mm
18:44 31.2 °C -1.6 °C 1013.4 hPa SE 7.4 km/h 6.6 km/h 12 % 0 mm
18:49 31.2 °C -1.6 °C 1013.4 hPa SE 9.7 km/h 9.2 km/h 12 % 0 mm
18:54 31.2 °C -1.6 °C 1013.4 hPa SE 5.6 km/h 0.5 km/h 12 % 0 mm
18:59 31.4 °C -1.4 °C 1013.4 hPa SE 5.6 km/h 0.2 km/h 12 % 0 mm
19:04 31.4 °C 6.5 °C 1013.4 hPa SE 14.8 km/h 9.2 km/h 21 % 0 mm
19:09 30.4 °C 8.2 °C 1013.8 hPa SE 18.5 km/h 16.1 km/h 25 % 0 mm
19:14 29.8 °C 8.3 °C 1013.8 hPa SE 16.7 km/h 13.2 km/h 26 % 0 mm
19:19 29.4 °C 8.4 °C 1013.8 hPa SSE 18.5 km/h 9 km/h 27 % 0 mm
19:24 29.1 °C 8.7 °C 1013.8 hPa SSE 20.4 km/h 13.8 km/h 28 % 0 mm
19:29 28.7 °C 8.9 °C 1013.8 hPa SE 24.1 km/h 14 km/h 29 % 0 mm
19:34 28.4 °C 9.2 °C 1013.8 hPa SE 14.8 km/h 8.9 km/h 30 % 0 mm
19:39 28.3 °C 9.1 °C 1014.1 hPa SE 13 km/h 8.7 km/h 30 % 0 mm
19:44 28.1 °C 9.3 °C 1014.1 hPa SSE 13 km/h 8.7 km/h 31 % 0 mm
19:49 27.8 °C 9.1 °C 1014.1 hPa SSE 13 km/h 9.2 km/h 31 % 0 mm
19:54 27.6 °C 9.4 °C 1014.1 hPa SSE 11.1 km/h 7.6 km/h 32 % 0 mm
19:59 27.3 °C 9.7 °C 1014.1 hPa SSE 7.4 km/h 2.9 km/h 33 % 0 mm
20:04 27.1 °C 9.4 °C 1014.1 hPa South 14.8 km/h 7.6 km/h 33 % 0 mm
20:09 26.8 °C 9.7 °C 1014.1 hPa SSE 9.3 km/h 6 km/h 34 % 0 mm
20:14 26.6 °C 9.9 °C 1014.1 hPa SSE 6.4 km/h 2.6 km/h 35 % 0 mm
20:19 26.3 °C 9.6 °C 1014.1 hPa South 7.4 km/h 7.2 km/h 35 % 0 mm
20:24 25.9 °C 9.7 °C 1014.4 hPa SSE 9.3 km/h 4.7 km/h 36 % 0 mm
20:29 25.5 °C 9.7 °C 1014.4 hPa SSE 6.4 km/h 4 km/h 37 % 0 mm
20:34 25.1 °C 9.8 °C 1014.4 hPa South 8 km/h 6 km/h 38 % 0 mm
20:39 24.7 °C 9.8 °C 1014.4 hPa South 8 km/h 5 km/h 39 % 0 mm
20:44 24.4 °C 9.9 °C 1014.4 hPa South 9.3 km/h 7.6 km/h 40 % 0 mm
20:49 24.3 °C 9.8 °C 1014.4 hPa South 13 km/h 7.7 km/h 40 % 0 mm
20:54 24.1 °C 10 °C 1014.4 hPa South 16.7 km/h 11.6 km/h 41 % 0 mm
20:59 24 °C 9.9 °C 1014.4 hPa South 11.1 km/h 10.3 km/h 41 % 0 mm
21:04 23.8 °C 10.2 °C 1014.4 hPa South 11.1 km/h 7.4 km/h 42 % 0 mm
21:09 23.6 °C 10.2 °C 1014.4 hPa South 7.4 km/h 4.8 km/h 43 % 0 mm
21:14 23.3 °C 10.4 °C 1014.4 hPa South 11.1 km/h 7.7 km/h 44 % 0 mm
21:19 23.2 °C 10.6 °C 1014.4 hPa South 13 km/h 6.4 km/h 45 % 0 mm
21:24 22.9 °C 10.4 °C 1014.8 hPa South 14.8 km/h 9.2 km/h 45 % 0 mm
21:29 22.7 °C 10.5 °C 1014.8 hPa South 9.3 km/h 5 km/h 46 % 0 mm
21:34 22.6 °C 10.7 °C 1014.8 hPa South 11.1 km/h 8.4 km/h 47 % 0 mm
21:39 22.4 °C 10.5 °C 1014.8 hPa South 8 km/h 7.2 km/h 47 % 0 mm
21:44 22.2 °C 10.7 °C 1014.8 hPa South 16.7 km/h 6.6 km/h 48 % 0 mm
21:49 22.2 °C 10.9 °C 1014.8 hPa South 11.1 km/h 9.2 km/h 49 % 0 mm
21:54 22.1 °C 10.8 °C 1015.1 hPa South 11.3 km/h 7.2 km/h 49 % 0 mm
21:59 21.9 °C 11.1 °C 1015.1 hPa South 11.1 km/h 7.6 km/h 50 % 0 mm
22:04 21.8 °C 10.9 °C 1015.1 hPa South 9.3 km/h 6.3 km/h 50 % 0 mm
22:09 21.6 °C 11.1 °C 1014.8 hPa South 11.1 km/h 8.7 km/h 51 % 0 mm
22:14 21.4 °C 11.1 °C 1015.1 hPa South 7.4 km/h 3.2 km/h 52 % 0 mm
22:19 21.2 °C 10.9 °C 1015.1 hPa South 11.3 km/h 6.3 km/h 52 % 0 mm
22:24 21.1 °C 11.1 °C 1015.1 hPa South 11.1 km/h 5.1 km/h 53 % 0 mm
22:29 20.9 °C 11.2 °C 1015.1 hPa South 3.7 km/h 0.6 km/h 54 % 0 mm
22:34 20.7 °C 11.3 °C 1015.5 hPa South 9.3 km/h 7.4 km/h 55 % 0 mm
22:39 20.6 °C 11.2 °C 1015.5 hPa South 6.4 km/h 2.4 km/h 55 % 0 mm
22:44 20.4 °C 11.3 °C 1015.5 hPa South 5.6 km/h 2.9 km/h 56 % 0 mm
22:49 20.2 °C 11.2 °C 1015.5 hPa South 5.6 km/h 1.6 km/h 56 % 0 mm
22:54 20.1 °C 11.3 °C 1015.1 hPa South 3.2 km/h 2.4 km/h 57 % 0 mm
22:59 19.8 °C 11.3 °C 1015.1 hPa South 5.6 km/h 1.9 km/h 58 % 0 mm
23:04 19.6 °C 11.3 °C 1015.1 hPa South 3.7 km/h 2.1 km/h 59 % 0 mm
23:09 19.3 °C 11.4 °C 1015.1 hPa South 3.7 km/h 1.8 km/h 60 % 0 mm
23:14 19.1 °C 11.2 °C 1015.1 hPa South 5.6 km/h 1.6 km/h 60 % 0 mm
23:19 18.9 °C 11.2 °C 1015.1 hPa Calm     61 % 0 mm
23:24 18.6 °C 11.2 °C 1015.1 hPa South 3.7 km/h 1.6 km/h 62 % 0 mm
23:29 18.3 °C 11.2 °C 1015.1 hPa South 3.7 km/h 1.8 km/h 63 % 0 mm
23:34 18 °C 11.1 °C 1015.1 hPa Calm     64 % 0 mm
23:39 17.7 °C 11.2 °C 1015.1 hPa South 3.7 km/h 1.9 km/h 66 % 0 mm
23:44 17.3 °C 11.2 °C 1015.1 hPa South 3.7 km/h 2.4 km/h 67 % 0 mm
23:49 17.2 °C 11.1 °C 1015.1 hPa South 1.9 km/h 1.6 km/h 67 % 0 mm
23:54 17.1 °C 11.2 °C 1015.1 hPa South 3.7 km/h 2.6 km/h 68 % 0 mm
23:59 17.1 °C 11.1 °C 1015.1 hPa Calm     68 % 0 mm
Ararat Weather
Compliments of Weather Underground - 2.25 mb
Click here to send mail.


ABOUT

Live weather data from Ararat, Victoria, Australia, 3377
Data uploaded from Cumulus every 5 minutes to Weather Underground.
This site then downloads the raw data for formatting and display.
Metric and imperial data can be displayed. Graphs and historical data available.
Includes Sun and Moon times and rain image live from BOM.

Check out Ararat Weather on Facebook, Twitter and Google +

Help support ongoing costs by checking out the ads





Follow @AraratWeather